createdAt,value
2022-08-25T00:00:22.546Z,99611.34
2022-08-25T00:02:55.417Z,99595.06
2022-08-25T00:05:32.520Z,99612.09
2022-08-25T00:08:06.192Z,99558.59
2022-08-25T00:10:39.046Z,99585.00
2022-08-25T00:13:08.913Z,99572.09
2022-08-25T00:15:38.501Z,99613.31
2022-08-25T00:18:11.508Z,99572.06
2022-08-25T00:20:49.445Z,99605.75
2022-08-25T00:23:19.268Z,99572.66
2022-08-25T00:25:47.924Z,99598.69
2022-08-25T00:28:17.003Z,99608.63
2022-08-25T00:30:45.938Z,99563.25
2022-08-25T00:33:14.902Z,99574.22
2022-08-25T00:35:45.268Z,99633.66
2022-08-25T00:38:14.227Z,99609.53
2022-08-25T00:40:42.927Z,99572.84
2022-08-25T00:43:12.501Z,99583.84
2022-08-25T00:45:40.877Z,99504.50
2022-08-25T00:48:09.095Z,99627.16
2022-08-25T00:50:37.564Z,99584.88
2022-08-25T00:53:07.604Z,99619.25
2022-08-25T00:55:40.179Z,99618.34
2022-08-25T00:58:25.146Z,99617.72
2022-08-25T01:00:57.706Z,99624.16
2022-08-25T01:03:33.108Z,99632.16
2022-08-25T01:06:04.985Z,99623.56
2022-08-25T01:08:34.565Z,99622.47
2022-08-25T01:11:07.570Z,99627.81
2022-08-25T01:13:48.371Z,99621.78
2022-08-25T01:16:17.713Z,99611.00
2022-08-25T01:18:53.731Z,99588.28
2022-08-25T01:21:26.228Z,99594.44
2022-08-25T01:23:58.480Z,99611.41
2022-08-25T01:26:31.886Z,99618.66
2022-08-25T01:29:21.245Z,99556.94
2022-08-25T01:31:59.095Z,99626.75
2022-08-25T01:34:34.419Z,99583.03
2022-08-25T01:37:04.363Z,99614.91
2022-08-25T01:39:34.217Z,99558.03
2022-08-25T01:42:10.391Z,99623.03
2022-08-25T01:44:42.390Z,99586.75
2022-08-25T01:47:11.270Z,99623.63
2022-08-25T01:49:39.406Z,99571.31
2022-08-25T01:52:27.977Z,99616.06
2022-08-25T01:54:56.180Z,99603.88
2022-08-25T01:57:24.700Z,99619.50
2022-08-25T01:59:52.897Z,99607.59
2022-08-25T02:02:21.174Z,99622.16
2022-08-25T02:04:49.579Z,99615.75
2022-08-25T02:07:19.424Z,99620.88
2022-08-25T02:09:48.088Z,99581.88
2022-08-25T02:12:16.507Z,99624.59
2022-08-25T02:14:44.597Z,99620.63
2022-08-25T02:17:13.053Z,99605.16
2022-08-25T02:19:41.191Z,99585.63
2022-08-25T02:22:11.927Z,99634.97
2022-08-25T02:24:40.483Z,99632.66
2022-08-25T02:27:10.315Z,99580.63
2022-08-25T02:29:38.322Z,99623.34
2022-08-25T02:32:07.214Z,99628.06
2022-08-25T02:34:35.728Z,99624.53
2022-08-25T02:37:03.850Z,99582.41
2022-08-25T02:39:31.952Z,99577.19
2022-08-25T02:42:00.128Z,99590.75
2022-08-25T02:44:28.188Z,99623.63
2022-08-25T02:46:56.685Z,99618.25
2022-08-25T02:49:25.130Z,99622.97
2022-08-25T02:51:54.964Z,99610.41
2022-08-25T02:54:23.499Z,99624.44
2022-08-25T02:56:51.733Z,99606.84
2022-08-25T02:59:20.093Z,99622.59
2022-08-25T03:01:48.860Z,99583.69
2022-08-25T03:04:17.768Z,99631.38
2022-08-25T03:06:46.902Z,99615.31
2022-08-25T03:09:16.829Z,99573.09
2022-08-25T03:11:47.132Z,99613.13
2022-08-25T03:14:15.763Z,99581.31
2022-08-25T03:16:46.265Z,99571.44
2022-08-25T03:19:15.056Z,99567.81
2022-08-25T03:21:43.172Z,99620.34
2022-08-25T03:24:11.487Z,99621.97
2022-08-25T03:26:56.031Z,99621.50
2022-08-25T03:29:28.349Z,99614.34
2022-08-25T03:31:58.423Z,99621.75
2022-08-25T03:34:30.239Z,99618.41
2022-08-25T03:36:59.307Z,99627.59
2022-08-25T03:39:29.177Z,99612.50
2022-08-25T03:41:57.438Z,99611.47
2022-08-25T03:44:25.628Z,99612.97
2022-08-25T03:46:53.749Z,99600.91
2022-08-25T03:49:24.684Z,99619.81
2022-08-25T03:51:55.185Z,99639.75
2022-08-25T03:54:26.228Z,99629.00
2022-08-25T03:56:55.048Z,99621.56
2022-08-25T03:59:23.236Z,99609.25
2022-08-25T04:01:55.080Z,99624.53
2022-08-25T04:04:24.237Z,99573.16
2022-08-25T04:06:53.353Z,99623.03
2022-08-25T04:09:21.417Z,99620.22
2022-08-25T04:11:53.150Z,99616.81
2022-08-25T04:14:23.828Z,99616.03
2022-08-25T04:16:53.295Z,99610.19
2022-08-25T04:19:22.155Z,99614.78
2022-08-25T04:21:50.371Z,99503.44
2022-08-25T04:24:19.783Z,99616.13
2022-08-25T04:26:51.578Z,99621.44
2022-08-25T04:29:23.701Z,99622.78
2022-08-25T04:31:54.710Z,99628.53
2022-08-25T04:34:30.480Z,99607.22
2022-08-25T04:37:03.446Z,99622.09
2022-08-25T04:39:32.264Z,99619.44
2022-08-25T04:42:01.096Z,99617.63
2022-08-25T04:44:30.816Z,99628.97
2022-08-25T04:47:00.454Z,99588.44
2022-08-25T04:49:28.918Z,99627.78
2022-08-25T04:51:57.756Z,99627.56
2022-08-25T04:54:26.016Z,99613.38
2022-08-25T04:56:58.741Z,99610.19
2022-08-25T04:59:29.997Z,99608.53
2022-08-25T05:02:03.323Z,99590.88
2022-08-25T05:04:34.330Z,99531.59
2022-08-25T05:07:03.101Z,99603.78
2022-08-25T05:09:32.513Z,99596.88
2022-08-25T05:12:05.425Z,99520.31
2022-08-25T05:14:35.140Z,99584.72
2022-08-25T05:17:03.497Z,99598.81
2022-08-25T05:19:31.812Z,99589.50
2022-08-25T05:22:00.108Z,99565.81
2022-08-25T05:24:28.305Z,99600.81
2022-08-25T05:26:57.451Z,99605.00
2022-08-25T05:29:27.280Z,99604.88
2022-08-25T05:31:55.480Z,99602.63
2022-08-25T05:34:24.981Z,99599.78
2022-08-25T05:36:53.173Z,99609.78
2022-08-25T05:39:21.272Z,99613.72
2022-08-25T05:41:49.549Z,99614.66
2022-08-25T05:44:20.824Z,99614.56
2022-08-25T05:46:50.072Z,99608.56
2022-08-25T05:49:18.322Z,99620.00
2022-08-25T05:51:46.653Z,99614.16
2022-08-25T05:54:14.931Z,99631.25
2022-08-25T05:56:43.113Z,99630.94
2022-08-25T05:59:11.260Z,99625.03
2022-08-25T06:01:58.282Z,99619.03
2022-08-25T06:04:26.489Z,99581.50
2022-08-25T06:06:55.751Z,99618.06
2022-08-25T06:09:24.537Z,99626.34
2022-08-25T06:11:55.139Z,99584.44
2022-08-25T06:14:25.406Z,99635.25
2022-08-25T06:16:55.409Z,99587.78
2022-08-25T06:19:24.883Z,99627.59
2022-08-25T06:21:58.676Z,99630.41
2022-08-25T06:24:28.709Z,99638.59
2022-08-25T06:26:57.835Z,99634.44
2022-08-25T06:29:27.170Z,99635.75
2022-08-25T06:31:55.441Z,99614.22
2022-08-25T06:50:38.549Z,99656.84
2022-08-25T06:53:07.453Z,99644.28
2022-08-25T06:55:36.291Z,99652.81
2022-08-25T06:58:05.855Z,99651.38
2022-08-25T07:00:38.977Z,99657.63
2022-08-25T07:03:07.197Z,99640.72
2022-08-25T07:05:43.414Z,99656.59
2022-08-25T07:08:12.134Z,99659.25
2022-08-25T07:10:40.654Z,99656.16
2022-08-25T07:13:08.628Z,99642.69
2022-08-25T07:15:44.386Z,99650.72
2022-08-25T07:18:13.334Z,99582.84
2022-08-25T07:20:41.710Z,99648.72
2022-08-25T07:23:09.985Z,99641.03
2022-08-25T07:25:38.681Z,99654.31
2022-08-25T07:28:06.956Z,99608.78
2022-08-25T07:30:37.567Z,99647.47
2022-08-25T07:33:06.785Z,99643.00
2022-08-25T07:35:39.078Z,99623.84
2022-08-25T07:38:13.016Z,99577.25
2022-08-25T07:40:43.952Z,99637.22
2022-08-25T07:43:13.998Z,99597.88
2022-08-25T07:45:49.379Z,99575.88
2022-08-25T07:48:20.198Z,99628.16
2022-08-25T07:50:49.569Z,99638.41
2022-08-25T07:53:18.267Z,99637.56
2022-08-25T07:55:47.383Z,99628.78
2022-08-25T07:58:16.039Z,99637.84
2022-08-25T08:00:48.860Z,99612.88
2022-08-25T08:03:42.245Z,99613.13
2022-08-25T08:06:14.315Z,99631.78
2022-08-25T08:08:45.865Z,99590.00
2022-08-25T08:11:18.040Z,99519.72
2022-08-25T08:13:48.550Z,99604.81
2022-08-25T08:16:20.583Z,99636.69
2022-08-25T08:18:48.997Z,99621.78
2022-08-25T08:21:26.849Z,99633.06
2022-08-25T08:23:59.085Z,99631.78
2022-08-25T08:26:48.343Z,99582.59
2022-08-25T08:29:16.950Z,99628.91
2022-08-25T08:31:48.476Z,99597.44
2022-08-25T08:34:17.405Z,99580.78
2022-08-25T08:36:45.584Z,99615.38
2022-08-25T08:39:13.975Z,99615.06
2022-08-25T08:42:22.563Z,99628.41
2022-08-25T08:45:43.821Z,99612.03
2022-08-25T08:48:52.179Z,99624.53
2022-08-25T08:51:25.513Z,99626.25
2022-08-25T08:54:18.897Z,99630.03
2022-08-25T08:57:08.237Z,99629.53
2022-08-25T09:00:00.870Z,99624.97
2022-08-25T09:02:52.079Z,99625.19
2022-08-25T09:05:26.719Z,99630.41
2022-08-25T09:08:03.502Z,99626.63
2022-08-25T09:10:47.096Z,99625.97
2022-08-25T09:13:51.262Z,99617.66
2022-08-25T09:16:58.018Z,99536.19
2022-08-25T09:20:23.793Z,99619.31
2022-08-25T09:23:13.223Z,99628.09
2022-08-25T09:26:27.586Z,99582.56
2022-08-25T09:29:19.883Z,99611.44
2022-08-25T09:31:49.682Z,99618.00
2022-08-25T09:34:24.884Z,99571.31
2022-08-25T09:36:53.622Z,99600.22
2022-08-25T09:39:22.245Z,99591.75
2022-08-25T09:42:00.545Z,99523.38
2022-08-25T09:44:44.192Z,99593.66
2022-08-25T09:47:18.404Z,99587.34
2022-08-25T09:49:49.543Z,99592.97
2022-08-25T09:52:29.199Z,99591.38
2022-08-25T09:55:30.025Z,99582.31
2022-08-25T09:58:11.652Z,99585.50
2022-08-25T10:01:01.545Z,99548.47
2022-08-25T10:03:30.352Z,99572.53
2022-08-25T10:06:13.682Z,99527.88
2022-08-25T10:08:58.989Z,99572.16
2022-08-25T10:11:38.322Z,99558.19
2022-08-25T10:14:35.260Z,99564.28
2022-08-25T10:17:27.602Z,99533.19
2022-08-25T10:20:35.179Z,99565.31
2022-08-25T10:23:13.857Z,99556.44
2022-08-25T10:25:59.404Z,99519.19
2022-08-25T10:28:49.613Z,99550.91
2022-08-25T10:31:24.895Z,99556.50
2022-08-25T10:34:36.056Z,99552.00
2022-08-25T10:37:18.277Z,99549.25
2022-08-25T10:39:59.551Z,99537.91
2022-08-25T10:43:17.150Z,99546.53
2022-08-25T10:46:08.722Z,99540.06
2022-08-25T10:48:52.788Z,99548.22
2022-08-25T10:51:54.285Z,99552.34
2022-08-25T10:54:46.970Z,99534.25
2022-08-25T10:58:14.761Z,99500.19
2022-08-25T11:01:28.871Z,99529.22
2022-08-25T11:04:50.578Z,99524.06
2022-08-25T11:07:46.345Z,99483.06
2022-08-25T11:11:09.333Z,99525.16
2022-08-25T11:14:01.615Z,99531.59
2022-08-25T11:16:43.707Z,99514.75
2022-08-25T11:19:35.271Z,99523.13
2022-08-25T11:22:24.313Z,99489.59
2022-08-25T11:25:18.922Z,99516.88
2022-08-25T11:28:29.843Z,99514.84
2022-08-25T11:31:02.135Z,99514.19
2022-08-25T11:33:31.855Z,99514.94
2022-08-25T11:36:23.697Z,99417.56
2022-08-25T11:39:23.178Z,99525.47
2022-08-25T11:42:01.666Z,99522.88
2022-08-25T11:45:12.130Z,99511.75
2022-08-25T11:48:28.397Z,99517.06
2022-08-25T11:51:07.574Z,99516.38
2022-08-25T11:53:44.472Z,99515.38
2022-08-25T11:56:33.314Z,99515.44
2022-08-25T11:59:04.580Z,99488.19
2022-08-25T12:01:55.314Z,99519.53
2022-08-25T12:04:44.983Z,99518.44
2022-08-25T12:07:22.030Z,99513.69
2022-08-25T12:09:55.975Z,99500.81
2022-08-25T12:12:32.459Z,99506.28
2022-08-25T12:15:30.243Z,99467.34
2022-08-25T12:18:45.816Z,99506.88
2022-08-25T12:21:28.918Z,99462.94
2022-08-25T12:24:13.227Z,99459.34
2022-08-25T12:26:58.578Z,99494.22
2022-08-25T12:29:29.525Z,99502.47
2022-08-25T12:32:04.544Z,99492.66
2022-08-25T12:35:11.456Z,99489.72
2022-08-25T12:38:04.925Z,99502.63
2022-08-25T12:40:48.141Z,99496.53
2022-08-25T12:43:40.435Z,99492.53
2022-08-25T12:46:30.711Z,99490.44
2022-08-25T12:49:33.441Z,99494.09
2022-08-25T12:52:28.071Z,99471.44
2022-08-25T12:55:03.854Z,99480.16
2022-08-25T12:57:58.063Z,99487.31
2022-08-25T13:00:36.634Z,99406.56
2022-08-25T13:04:11.611Z,99482.78
2022-08-25T13:07:05.233Z,99480.25
2022-08-25T13:10:11.350Z,99477.66
2022-08-25T13:13:13.455Z,99481.84
2022-08-25T13:15:57.485Z,99474.63
2022-08-25T13:18:30.834Z,99474.03
2022-08-25T13:21:24.804Z,99461.06
2022-08-25T13:24:01.386Z,99462.69
2022-08-25T13:26:48.385Z,99458.41
2022-08-25T13:29:24.793Z,99432.78
2022-08-25T13:32:01.580Z,99476.16
2022-08-25T13:34:39.011Z,99428.88
2022-08-25T13:37:30.565Z,99458.56
2022-08-25T13:40:24.553Z,99466.88
2022-08-25T13:43:01.206Z,99427.72
2022-08-25T13:45:45.038Z,99460.56
2022-08-25T13:48:31.418Z,99465.34
2022-08-25T13:51:31.254Z,99468.03
2022-08-25T13:54:09.867Z,99464.50
2022-08-25T13:56:42.742Z,99450.75
2022-08-25T13:59:31.216Z,99448.03
2022-08-25T14:02:00.217Z,99449.09
2022-08-25T14:04:53.896Z,99448.25
2022-08-25T14:07:25.991Z,99445.63
2022-08-25T14:10:43.047Z,99436.09
2022-08-25T14:13:34.997Z,99440.63
2022-08-25T14:16:25.470Z,99413.22
2022-08-25T14:18:59.436Z,99388.78
2022-08-25T14:21:31.623Z,99434.38
2022-08-25T14:24:01.055Z,99430.34
2022-08-25T14:26:29.207Z,99426.28
2022-08-25T14:28:59.666Z,99413.19
2022-08-25T14:31:36.305Z,99425.47
2022-08-25T14:34:10.174Z,99415.03
2022-08-25T14:36:43.036Z,99415.16
2022-08-25T14:39:13.743Z,99418.84
2022-08-25T14:41:45.332Z,99420.78
2022-08-25T14:44:22.655Z,99352.22
2022-08-25T14:46:55.378Z,99387.00
2022-08-25T14:49:34.030Z,99417.97
2022-08-25T14:52:16.668Z,99384.56
2022-08-25T14:54:45.259Z,99425.72
2022-08-25T14:57:14.508Z,99430.03
2022-08-25T14:59:43.391Z,99426.34
2022-08-25T15:02:19.959Z,99424.94
2022-08-25T15:04:57.606Z,99391.78
2022-08-25T15:07:45.520Z,99354.63
2022-08-25T15:10:13.930Z,99428.69
2022-08-25T15:12:47.884Z,99292.44
2022-08-25T15:15:16.665Z,99430.28
2022-08-25T15:17:47.386Z,99384.97
2022-08-25T15:20:19.456Z,99384.13
2022-08-25T15:22:48.407Z,99374.94
2022-08-25T15:25:17.051Z,99407.28
2022-08-25T15:27:46.272Z,99417.94
2022-08-25T15:30:15.423Z,99422.66
2022-08-25T15:32:44.613Z,99404.41
2022-08-25T15:35:17.223Z,99414.81
2022-08-25T15:37:48.314Z,99364.97
2022-08-25T15:40:16.593Z,99416.41
2022-08-25T15:42:46.027Z,99413.78
2022-08-25T15:45:14.657Z,99367.19
2022-08-25T15:47:42.773Z,99414.97
2022-08-25T15:50:16.704Z,99410.13
2022-08-25T15:52:47.409Z,99414.38
2022-08-25T15:55:17.985Z,99403.34
2022-08-25T15:57:49.627Z,99379.41
2022-08-25T16:00:21.552Z,99412.47
2022-08-25T16:02:50.095Z,99417.56
2022-08-25T16:05:22.497Z,99405.53
2022-08-25T16:07:54.445Z,99381.25
2022-08-25T16:10:22.712Z,99408.94
2022-08-25T16:12:51.768Z,99366.97
2022-08-25T16:15:23.947Z,99362.88
2022-08-25T16:17:58.961Z,99411.53
2022-08-25T16:20:33.491Z,99397.84
2022-08-25T16:23:03.114Z,99370.50
2022-08-25T16:25:32.524Z,99394.59
2022-08-25T16:28:01.923Z,99364.28
2022-08-25T16:30:31.595Z,99406.34
2022-08-25T16:33:02.584Z,99403.88
2022-08-25T16:35:30.729Z,99369.88
2022-08-25T16:37:58.905Z,99366.47
2022-08-25T16:40:30.196Z,99405.13
2022-08-25T16:42:59.446Z,99392.53
2022-08-25T16:45:28.553Z,99398.31
2022-08-25T16:47:59.093Z,99361.00
2022-08-25T16:50:27.641Z,99423.03
2022-08-25T16:53:15.584Z,99398.41
2022-08-25T16:55:44.757Z,99302.66
2022-08-25T16:58:16.135Z,99409.63
2022-08-25T17:00:44.962Z,99403.84
2022-08-25T17:03:13.742Z,99410.41
2022-08-25T17:05:43.272Z,99407.38
2022-08-25T17:08:30.699Z,99415.53
2022-08-25T17:11:19.250Z,99415.72
2022-08-25T17:13:52.287Z,99390.59
2022-08-25T17:16:26.408Z,99417.69
2022-08-25T17:18:55.817Z,99421.97
2022-08-25T17:21:27.049Z,99418.16
2022-08-25T17:23:58.129Z,99421.59
2022-08-25T17:26:27.902Z,99413.75
2022-08-25T17:29:01.772Z,99391.44
2022-08-25T17:31:30.844Z,99420.97
2022-08-25T17:33:59.551Z,99426.03
2022-08-25T17:36:28.343Z,99346.66
2022-08-25T17:39:00.381Z,99422.66
2022-08-25T17:41:30.917Z,99431.31
2022-08-25T17:43:59.663Z,99428.88
2022-08-25T17:46:29.363Z,99417.59
2022-08-25T17:48:57.634Z,99437.09
2022-08-25T17:51:31.550Z,99435.88
2022-08-25T17:54:00.556Z,99405.28
2022-08-25T17:56:29.212Z,99431.59
2022-08-25T17:58:58.220Z,99437.69
2022-08-25T18:01:40.132Z,99444.94
2022-08-25T18:04:17.882Z,99446.41
2022-08-25T18:06:56.565Z,99442.34
2022-08-25T18:09:25.465Z,99437.66
2022-08-25T18:11:54.084Z,99428.97
2022-08-25T18:14:25.417Z,99361.75
2022-08-25T18:16:54.674Z,99384.94
2022-08-25T18:19:23.359Z,99436.25
2022-08-25T18:21:52.386Z,99402.34
2022-08-25T18:24:21.285Z,99454.97
2022-08-25T18:26:51.958Z,99451.00
2022-08-25T18:29:21.203Z,99445.78
2022-08-25T18:31:51.884Z,99407.25
2022-08-25T18:34:22.390Z,99447.59
2022-08-25T18:36:51.477Z,99428.63
2022-08-25T18:39:39.696Z,99451.56
2022-08-25T18:42:09.032Z,99444.84
2022-08-25T18:44:37.446Z,99443.75
2022-08-25T18:47:07.510Z,99453.44
2022-08-25T18:49:37.742Z,99456.13
2022-08-25T18:52:06.364Z,99455.50
2022-08-25T18:54:36.153Z,99417.81
2022-08-25T18:57:08.164Z,99466.66
2022-08-25T18:59:37.597Z,99451.59
2022-08-25T19:02:07.915Z,99458.31
2022-08-25T19:04:37.831Z,99462.72
2022-08-25T19:07:07.940Z,99415.25
2022-08-25T19:09:37.240Z,99416.53
2022-08-25T19:12:06.097Z,99407.69
2022-08-25T19:14:40.995Z,99449.91
2022-08-25T19:17:10.049Z,99442.13
2022-08-25T19:19:38.903Z,99456.88
2022-08-25T19:22:26.601Z,99426.00
2022-08-25T19:24:58.404Z,99415.09
2022-08-25T19:27:28.797Z,99418.25
2022-08-25T19:29:59.770Z,99464.19
2022-08-25T19:32:30.391Z,99457.81
2022-08-25T19:34:59.173Z,99463.69
2022-08-25T19:37:29.786Z,99467.06
2022-08-25T19:39:59.493Z,99462.66
2022-08-25T19:42:35.245Z,99461.09
2022-08-25T19:45:10.701Z,99413.16
2022-08-25T19:47:42.118Z,99444.50
2022-08-25T19:50:16.623Z,99457.63
2022-08-25T19:52:47.014Z,99458.72
2022-08-25T19:55:20.079Z,99410.75
2022-08-25T19:57:49.030Z,99449.41
2022-08-25T20:00:25.976Z,99456.50
2022-08-25T20:02:56.568Z,99451.31
2022-08-25T20:05:25.595Z,99457.16
2022-08-25T20:07:56.923Z,99454.41
2022-08-25T20:10:29.983Z,99449.84
2022-08-25T20:12:59.635Z,99446.34
2022-08-25T20:15:29.120Z,99453.03
2022-08-25T20:18:08.199Z,99458.53
2022-08-25T20:20:37.372Z,99408.72
2022-08-25T20:23:27.962Z,99415.56
2022-08-25T20:25:57.156Z,99456.72
2022-08-25T20:28:26.294Z,99453.00
2022-08-25T20:30:57.176Z,99448.63
2022-08-25T20:33:25.574Z,99456.75
2022-08-25T20:35:54.662Z,99454.69
2022-08-25T20:38:24.594Z,99458.88
2022-08-25T20:40:53.125Z,99444.31
2022-08-25T20:43:21.747Z,99455.13
2022-08-25T20:45:59.988Z,99469.03
2022-08-25T20:48:29.517Z,99448.50
2022-08-25T20:50:58.260Z,99458.47
2022-08-25T20:53:27.611Z,99436.22
2022-08-25T20:55:56.173Z,99454.50
2022-08-25T20:58:25.017Z,99436.00
2022-08-25T21:00:55.467Z,99448.91
2022-08-25T21:03:24.439Z,99446.41
2022-08-25T21:05:54.045Z,99447.66
2022-08-25T21:08:23.637Z,99335.63
2022-08-25T21:10:52.170Z,99445.59
2022-08-25T21:13:20.325Z,99408.16
2022-08-25T21:15:51.111Z,99419.53
2022-08-25T21:18:19.288Z,99446.94
2022-08-25T21:20:47.617Z,99450.44
2022-08-25T21:23:16.564Z,99450.41
2022-08-25T21:25:45.424Z,99454.53
2022-08-25T21:28:15.196Z,99446.66
2022-08-25T21:30:47.132Z,99447.22
2022-08-25T21:33:15.829Z,99392.69
2022-08-25T21:35:44.296Z,99438.91
2022-08-25T21:38:15.992Z,99442.63
2022-08-25T21:40:45.050Z,99443.34
2022-08-25T21:43:13.701Z,99419.38
2022-08-25T21:45:46.595Z,99446.16
2022-08-25T21:48:17.169Z,99355.28
2022-08-25T21:50:46.656Z,99440.31
2022-08-25T21:53:15.264Z,99436.38
2022-08-25T21:55:44.740Z,99438.41
2022-08-25T21:58:15.318Z,99431.56
2022-08-25T22:00:45.335Z,99414.72
2022-08-25T22:03:13.827Z,99426.78
2022-08-25T22:05:43.286Z,99420.50
2022-08-25T22:08:14.249Z,99434.78
2022-08-25T22:10:45.703Z,99429.38
2022-08-25T22:13:13.742Z,99430.81
2022-08-25T22:15:41.922Z,99419.16
2022-08-25T22:18:10.154Z,99426.19
2022-08-25T22:20:39.230Z,99419.56
2022-08-25T22:23:10.265Z,99379.56
2022-08-25T22:25:48.735Z,99391.34
2022-08-25T22:28:17.196Z,99411.50
2022-08-25T22:30:45.322Z,99426.44
2022-08-25T22:33:13.519Z,99425.16
2022-08-25T22:35:42.136Z,99342.31
2022-08-25T22:38:12.402Z,99423.34
2022-08-25T22:40:41.578Z,99423.31
2022-08-25T22:43:10.942Z,99387.84
2022-08-25T22:45:39.289Z,99420.47
2022-08-25T22:48:08.248Z,99418.19
2022-08-25T22:50:37.673Z,99401.53
2022-08-25T22:53:05.832Z,99404.22
2022-08-25T22:55:34.228Z,99366.97
2022-08-25T22:58:02.410Z,99394.34
2022-08-25T23:00:31.713Z,99359.59
2022-08-25T23:02:59.812Z,99357.66
2022-08-25T23:05:28.010Z,99392.19
2022-08-25T23:07:56.095Z,99350.81
2022-08-25T23:10:25.945Z,99379.75
2022-08-25T23:12:54.340Z,99386.81
2022-08-25T23:15:22.697Z,99380.53
2022-08-25T23:17:51.634Z,99344.03
2022-08-25T23:20:44.741Z,99372.28
2022-08-25T23:23:14.326Z,99369.28
2022-08-25T23:25:42.663Z,99381.13
2022-08-25T23:28:10.776Z,99331.19
2022-08-25T23:30:42.749Z,99365.59
2022-08-25T23:33:18.870Z,99386.81
2022-08-25T23:35:57.172Z,99375.63
2022-08-25T23:38:26.160Z,99382.56
2022-08-25T23:40:57.762Z,99381.19
2022-08-25T23:43:26.555Z,99322.88
2022-08-25T23:45:55.648Z,99330.28
2022-08-25T23:48:25.273Z,99377.66
2022-08-25T23:50:53.985Z,99339.16
2022-08-25T23:53:22.784Z,99374.09
2022-08-25T23:55:53.981Z,99384.53
2022-08-25T23:58:23.664Z,99343.16
